sensor_id;sensor_type;location;lat;lon;timestamp;P1;durP1;ratioP1;P2;durP2;ratioP2
56122;SDS011;42426;46.104;19.656;2022-08-23T00:01:57;13.18;;;10.23;;
56122;SDS011;42426;46.104;19.656;2022-08-23T00:04:29;13.80;;;11.35;;
56122;SDS011;42426;46.104;19.656;2022-08-23T00:06:58;16.33;;;12.05;;
56122;SDS011;42426;46.104;19.656;2022-08-23T00:09:25;18.75;;;13.00;;
56122;SDS011;42426;46.104;19.656;2022-08-23T00:12:04;14.68;;;12.77;;
56122;SDS011;42426;46.104;19.656;2022-08-23T00:14:47;12.68;;;10.65;;
56122;SDS011;42426;46.104;19.656;2022-08-23T00:17:14;18.38;;;14.52;;
56122;SDS011;42426;46.104;19.656;2022-08-23T00:19:41;19.48;;;12.02;;
56122;SDS011;42426;46.104;19.656;2022-08-23T00:22:07;15.68;;;12.57;;
56122;SDS011;42426;46.104;19.656;2022-08-23T00:24:34;15.90;;;13.07;;
56122;SDS011;42426;46.104;19.656;2022-08-23T00:29:34;16.27;;;12.73;;
56122;SDS011;42426;46.104;19.656;2022-08-23T00:32:04;16.60;;;12.77;;
56122;SDS011;42426;46.104;19.656;2022-08-23T00:34:31;17.05;;;12.82;;
56122;SDS011;42426;46.104;19.656;2022-08-23T00:36:58;14.60;;;12.38;;
56122;SDS011;42426;46.104;19.656;2022-08-23T00:39:24;15.13;;;11.48;;
56122;SDS011;42426;46.104;19.656;2022-08-23T00:41:50;17.23;;;13.13;;
56122;SDS011;42426;46.104;19.656;2022-08-23T00:44:23;16.30;;;12.80;;
56122;SDS011;42426;46.104;19.656;2022-08-23T00:47:13;18.48;;;13.52;;
56122;SDS011;42426;46.104;19.656;2022-08-23T00:50:06;14.50;;;12.15;;
56122;SDS011;42426;46.104;19.656;2022-08-23T00:52:37;18.63;;;12.25;;
56122;SDS011;42426;46.104;19.656;2022-08-23T00:55:09;19.55;;;13.73;;
56122;SDS011;42426;46.104;19.656;2022-08-23T00:57:35;14.70;;;12.20;;
56122;SDS011;42426;46.104;19.656;2022-08-23T01:00:04;15.02;;;11.63;;
56122;SDS011;42426;46.104;19.656;2022-08-23T01:02:31;16.67;;;11.85;;
56122;SDS011;42426;46.104;19.656;2022-08-23T01:04:57;16.25;;;11.45;;
56122;SDS011;42426;46.104;19.656;2022-08-23T01:07:27;13.63;;;11.77;;
56122;SDS011;42426;46.104;19.656;2022-08-23T01:10:49;14.20;;;11.90;;
56122;SDS011;42426;46.104;19.656;2022-08-23T01:13:22;19.90;;;13.27;;
56122;SDS011;42426;46.104;19.656;2022-08-23T01:16:13;16.10;;;11.90;;
56122;SDS011;42426;46.104;19.656;2022-08-23T01:18:45;13.98;;;11.70;;
56122;SDS011;42426;46.104;19.656;2022-08-23T01:21:19;14.93;;;11.88;;
56122;SDS011;42426;46.104;19.656;2022-08-23T01:23:55;18.67;;;14.05;;
56122;SDS011;42426;46.104;19.656;2022-08-23T01:26:24;19.98;;;13.57;;
56122;SDS011;42426;46.104;19.656;2022-08-23T01:28:52;22.58;;;14.52;;
56122;SDS011;42426;46.104;19.656;2022-08-23T01:31:19;21.60;;;14.55;;
56122;SDS011;42426;46.104;19.656;2022-08-23T01:33:47;21.25;;;13.30;;
56122;SDS011;42426;46.104;19.656;2022-08-23T01:36:17;20.25;;;13.23;;
56122;SDS011;42426;46.104;19.656;2022-08-23T01:38:43;27.95;;;14.00;;
56122;SDS011;42426;46.104;19.656;2022-08-23T01:41:09;24.30;;;13.75;;
56122;SDS011;42426;46.104;19.656;2022-08-23T01:43:35;26.52;;;14.48;;
56122;SDS011;42426;46.104;19.656;2022-08-23T01:46:12;19.13;;;12.90;;
56122;SDS011;42426;46.104;19.656;2022-08-23T01:48:42;19.52;;;12.98;;
56122;SDS011;42426;46.104;19.656;2022-08-23T01:51:10;13.40;;;9.18;;
56122;SDS011;42426;46.104;19.656;2022-08-23T01:53:36;19.92;;;11.70;;
56122;SDS011;42426;46.104;19.656;2022-08-23T01:56:03;17.02;;;10.35;;
56122;SDS011;42426;46.104;19.656;2022-08-23T01:58:33;11.38;;;5.40;;
56122;SDS011;42426;46.104;19.656;2022-08-23T02:01:00;7.78;;;5.78;;
56122;SDS011;42426;46.104;19.656;2022-08-23T02:03:28;18.48;;;10.32;;
56122;SDS011;42426;46.104;19.656;2022-08-23T02:05:55;12.15;;;9.27;;
56122;SDS011;42426;46.104;19.656;2022-08-23T02:08:21;14.90;;;10.07;;
56122;SDS011;42426;46.104;19.656;2022-08-23T02:11:06;11.90;;;9.10;;
56122;SDS011;42426;46.104;19.656;2022-08-23T02:13:39;10.75;;;9.40;;
56122;SDS011;42426;46.104;19.656;2022-08-23T02:16:05;16.00;;;9.57;;
56122;SDS011;42426;46.104;19.656;2022-08-23T02:18:31;22.58;;;10.18;;
56122;SDS011;42426;46.104;19.656;2022-08-23T02:20:57;14.70;;;9.35;;
56122;SDS011;42426;46.104;19.656;2022-08-23T02:23:23;15.57;;;9.50;;
56122;SDS011;42426;46.104;19.656;2022-08-23T02:25:49;19.80;;;9.95;;
56122;SDS011;42426;46.104;19.656;2022-08-23T02:28:16;14.43;;;9.38;;
56122;SDS011;42426;46.104;19.656;2022-08-23T02:30:43;11.07;;;9.15;;
56122;SDS011;42426;46.104;19.656;2022-08-23T02:33:10;18.10;;;9.68;;
56122;SDS011;42426;46.104;19.656;2022-08-23T02:35:36;11.40;;;8.65;;
56122;SDS011;42426;46.104;19.656;2022-08-23T02:38:07;10.50;;;4.97;;
56122;SDS011;42426;46.104;19.656;2022-08-23T02:40:35;11.40;;;8.77;;
56122;SDS011;42426;46.104;19.656;2022-08-23T02:43:03;10.95;;;8.35;;
56122;SDS011;42426;46.104;19.656;2022-08-23T02:45:30;8.60;;;6.15;;
56122;SDS011;42426;46.104;19.656;2022-08-23T02:47:56;12.63;;;9.32;;
56122;SDS011;42426;46.104;19.656;2022-08-23T02:50:22;16.63;;;9.00;;
56122;SDS011;42426;46.104;19.656;2022-08-23T02:52:48;9.63;;;7.82;;
56122;SDS011;42426;46.104;19.656;2022-08-23T02:55:14;14.30;;;9.50;;
56122;SDS011;42426;46.104;19.656;2022-08-23T02:57:41;16.25;;;10.30;;
56122;SDS011;42426;46.104;19.656;2022-08-23T03:00:07;10.40;;;5.88;;
56122;SDS011;42426;46.104;19.656;2022-08-23T03:02:36;11.40;;;9.52;;
56122;SDS011;42426;46.104;19.656;2022-08-23T03:05:03;11.18;;;8.57;;
56122;SDS011;42426;46.104;19.656;2022-08-23T03:07:30;11.95;;;9.38;;
56122;SDS011;42426;46.104;19.656;2022-08-23T03:09:56;6.68;;;5.97;;
56122;SDS011;42426;46.104;19.656;2022-08-23T03:12:21;7.20;;;6.50;;
56122;SDS011;42426;46.104;19.656;2022-08-23T03:14:48;12.35;;;8.60;;
56122;SDS011;42426;46.104;19.656;2022-08-23T03:17:16;6.05;;;4.88;;
56122;SDS011;42426;46.104;19.656;2022-08-23T03:19:42;11.48;;;4.22;;
56122;SDS011;42426;46.104;19.656;2022-08-23T03:22:08;7.28;;;6.40;;
56122;SDS011;42426;46.104;19.656;2022-08-23T03:24:34;10.02;;;6.45;;
56122;SDS011;42426;46.104;19.656;2022-08-23T03:27:00;7.47;;;5.50;;
56122;SDS011;42426;46.104;19.656;2022-08-23T03:29:27;15.60;;;7.72;;
56122;SDS011;42426;46.104;19.656;2022-08-23T03:31:53;12.02;;;7.38;;
56122;SDS011;42426;46.104;19.656;2022-08-23T03:34:18;6.22;;;4.10;;
56122;SDS011;42426;46.104;19.656;2022-08-23T03:36:44;6.00;;;5.07;;
56122;SDS011;42426;46.104;19.656;2022-08-23T03:39:10;9.13;;;8.05;;
56122;SDS011;42426;46.104;19.656;2022-08-23T03:41:37;10.18;;;8.88;;
56122;SDS011;42426;46.104;19.656;2022-08-23T03:44:03;8.18;;;7.38;;
56122;SDS011;42426;46.104;19.656;2022-08-23T03:46:29;9.18;;;8.18;;
56122;SDS011;42426;46.104;19.656;2022-08-23T03:48:56;10.70;;;9.40;;
56122;SDS011;42426;46.104;19.656;2022-08-23T03:51:25;10.63;;;9.52;;
56122;SDS011;42426;46.104;19.656;2022-08-23T03:53:52;4.70;;;4.28;;
56122;SDS011;42426;46.104;19.656;2022-08-23T03:56:26;8.23;;;5.88;;
56122;SDS011;42426;46.104;19.656;2022-08-23T03:58:58;10.63;;;8.75;;
56122;SDS011;42426;46.104;19.656;2022-08-23T04:01:26;9.63;;;7.28;;
56122;SDS011;42426;46.104;19.656;2022-08-23T04:03:52;9.98;;;7.75;;
56122;SDS011;42426;46.104;19.656;2022-08-23T04:06:18;10.88;;;8.10;;
56122;SDS011;42426;46.104;19.656;2022-08-23T04:08:44;12.90;;;9.80;;
56122;SDS011;42426;46.104;19.656;2022-08-23T04:11:11;12.50;;;7.50;;
56122;SDS011;42426;46.104;19.656;2022-08-23T04:13:38;4.55;;;4.00;;
56122;SDS011;42426;46.104;19.656;2022-08-23T04:16:05;6.60;;;3.50;;
56122;SDS011;42426;46.104;19.656;2022-08-23T04:18:32;11.80;;;9.23;;
56122;SDS011;42426;46.104;19.656;2022-08-23T04:20:58;16.00;;;9.65;;
56122;SDS011;42426;46.104;19.656;2022-08-23T04:23:28;11.07;;;9.57;;
56122;SDS011;42426;46.104;19.656;2022-08-23T04:25:54;16.92;;;11.45;;
56122;SDS011;42426;46.104;19.656;2022-08-23T04:28:20;10.75;;;9.65;;
56122;SDS011;42426;46.104;19.656;2022-08-23T04:30:47;12.38;;;9.35;;
56122;SDS011;42426;46.104;19.656;2022-08-23T04:33:13;25.90;;;13.02;;
56122;SDS011;42426;46.104;19.656;2022-08-23T04:35:40;11.38;;;9.23;;
56122;SDS011;42426;46.104;19.656;2022-08-23T04:38:05;9.68;;;6.95;;
56122;SDS011;42426;46.104;19.656;2022-08-23T04:40:31;6.55;;;3.92;;
56122;SDS011;42426;46.104;19.656;2022-08-23T04:45:41;5.47;;;4.93;;
56122;SDS011;42426;46.104;19.656;2022-08-23T04:48:07;8.18;;;4.03;;
56122;SDS011;42426;46.104;19.656;2022-08-23T04:50:34;11.98;;;9.82;;
56122;SDS011;42426;46.104;19.656;2022-08-23T04:53:00;7.05;;;4.85;;
56122;SDS011;42426;46.104;19.656;2022-08-23T04:55:26;6.07;;;5.47;;
56122;SDS011;42426;46.104;19.656;2022-08-23T04:57:52;14.30;;;11.73;;
56122;SDS011;42426;46.104;19.656;2022-08-23T05:00:18;13.13;;;10.77;;
56122;SDS011;42426;46.104;19.656;2022-08-23T05:02:45;11.38;;;9.20;;
56122;SDS011;42426;46.104;19.656;2022-08-23T05:05:10;4.88;;;4.35;;
56122;SDS011;42426;46.104;19.656;2022-08-23T05:07:37;11.60;;;8.63;;
56122;SDS011;42426;46.104;19.656;2022-08-23T05:10:06;13.70;;;11.18;;
56122;SDS011;42426;46.104;19.656;2022-08-23T05:12:33;16.13;;;12.23;;
56122;SDS011;42426;46.104;19.656;2022-08-23T05:14:59;12.90;;;10.15;;
56122;SDS011;42426;46.104;19.656;2022-08-23T05:17:25;14.88;;;12.02;;
56122;SDS011;42426;46.104;19.656;2022-08-23T05:19:51;14.77;;;10.68;;
56122;SDS011;42426;46.104;19.656;2022-08-23T05:22:17;9.70;;;8.15;;
56122;SDS011;42426;46.104;19.656;2022-08-23T05:24:43;18.30;;;14.25;;
56122;SDS011;42426;46.104;19.656;2022-08-23T05:27:09;17.27;;;12.73;;
56122;SDS011;42426;46.104;19.656;2022-08-23T05:29:35;8.35;;;7.50;;
56122;SDS011;42426;46.104;19.656;2022-08-23T05:32:01;7.35;;;6.50;;
56122;SDS011;42426;46.104;19.656;2022-08-23T05:34:27;6.15;;;5.45;;
56122;SDS011;42426;46.104;19.656;2022-08-23T05:36:53;11.70;;;9.40;;
56122;SDS011;42426;46.104;19.656;2022-08-23T05:39:19;11.30;;;8.20;;
56122;SDS011;42426;46.104;19.656;2022-08-23T05:41:45;14.18;;;9.80;;
56122;SDS011;42426;46.104;19.656;2022-08-23T05:44:11;18.88;;;13.15;;
56122;SDS011;42426;46.104;19.656;2022-08-23T05:46:38;15.25;;;12.43;;
56122;SDS011;42426;46.104;19.656;2022-08-23T05:49:06;10.77;;;8.15;;
56122;SDS011;42426;46.104;19.656;2022-08-23T05:51:32;13.68;;;10.45;;
56122;SDS011;42426;46.104;19.656;2022-08-23T05:54:00;15.02;;;10.60;;
56122;SDS011;42426;46.104;19.656;2022-08-23T05:56:32;17.85;;;12.50;;
56122;SDS011;42426;46.104;19.656;2022-08-23T05:59:03;8.23;;;6.80;;
56122;SDS011;42426;46.104;19.656;2022-08-23T06:01:31;9.73;;;6.60;;
56122;SDS011;42426;46.104;19.656;2022-08-23T06:03:57;14.25;;;6.72;;
56122;SDS011;42426;46.104;19.656;2022-08-23T06:06:25;17.35;;;11.52;;
56122;SDS011;42426;46.104;19.656;2022-08-23T06:08:51;19.40;;;13.25;;
56122;SDS011;42426;46.104;19.656;2022-08-23T06:11:19;9.50;;;6.32;;
56122;SDS011;42426;46.104;19.656;2022-08-23T06:13:47;15.55;;;11.63;;
56122;SDS011;42426;46.104;19.656;2022-08-23T06:16:17;10.45;;;7.78;;
56122;SDS011;42426;46.104;19.656;2022-08-23T06:18:45;13.65;;;7.55;;
56122;SDS011;42426;46.104;19.656;2022-08-23T06:21:11;11.32;;;7.07;;
56122;SDS011;42426;46.104;19.656;2022-08-23T06:23:39;18.10;;;12.93;;
56122;SDS011;42426;46.104;19.656;2022-08-23T06:26:12;8.77;;;6.65;;
56122;SDS011;42426;46.104;19.656;2022-08-23T06:28:40;11.45;;;8.55;;
56122;SDS011;42426;46.104;19.656;2022-08-23T06:31:07;14.30;;;9.93;;
56122;SDS011;42426;46.104;19.656;2022-08-23T06:33:33;15.95;;;11.20;;
56122;SDS011;42426;46.104;19.656;2022-08-23T06:36:04;9.65;;;6.90;;
56122;SDS011;42426;46.104;19.656;2022-08-23T06:38:33;18.30;;;11.98;;
56122;SDS011;42426;46.104;19.656;2022-08-23T06:41:03;12.85;;;10.43;;
56122;SDS011;42426;46.104;19.656;2022-08-23T06:43:31;13.07;;;7.68;;
56122;SDS011;42426;46.104;19.656;2022-08-23T06:46:14;12.18;;;10.35;;
56122;SDS011;42426;46.104;19.656;2022-08-23T06:48:41;17.85;;;12.32;;
56122;SDS011;42426;46.104;19.656;2022-08-23T06:51:09;14.63;;;11.70;;
56122;SDS011;42426;46.104;19.656;2022-08-23T06:53:40;13.70;;;10.85;;
56122;SDS011;42426;46.104;19.656;2022-08-23T06:56:06;11.15;;;8.85;;
56122;SDS011;42426;46.104;19.656;2022-08-23T06:58:32;12.65;;;10.05;;
56122;SDS011;42426;46.104;19.656;2022-08-23T07:03:56;14.73;;;11.65;;
56122;SDS011;42426;46.104;19.656;2022-08-23T07:06:24;7.75;;;5.90;;
56122;SDS011;42426;46.104;19.656;2022-08-23T07:08:51;16.73;;;12.45;;
56122;SDS011;42426;46.104;19.656;2022-08-23T07:11:18;13.45;;;6.25;;
56122;SDS011;42426;46.104;19.656;2022-08-23T07:13:44;13.63;;;8.85;;
56122;SDS011;42426;46.104;19.656;2022-08-23T07:16:10;14.98;;;12.18;;
56122;SDS011;42426;46.104;19.656;2022-08-23T07:18:36;6.65;;;5.93;;
56122;SDS011;42426;46.104;19.656;2022-08-23T07:21:03;11.55;;;8.98;;
56122;SDS011;42426;46.104;19.656;2022-08-23T07:23:31;17.13;;;10.63;;
56122;SDS011;42426;46.104;19.656;2022-08-23T07:26:02;15.50;;;9.88;;
56122;SDS011;42426;46.104;19.656;2022-08-23T07:28:32;6.93;;;5.50;;
56122;SDS011;42426;46.104;19.656;2022-08-23T07:31:08;7.93;;;5.47;;
56122;SDS011;42426;46.104;19.656;2022-08-23T07:33:37;11.18;;;7.18;;
56122;SDS011;42426;46.104;19.656;2022-08-23T07:36:04;10.23;;;5.70;;
56122;SDS011;42426;46.104;19.656;2022-08-23T07:38:31;14.15;;;7.90;;
56122;SDS011;42426;46.104;19.656;2022-08-23T07:40:57;10.82;;;8.90;;
56122;SDS011;42426;46.104;19.656;2022-08-23T07:43:23;14.02;;;10.50;;
56122;SDS011;42426;46.104;19.656;2022-08-23T07:45:48;10.50;;;9.25;;
56122;SDS011;42426;46.104;19.656;2022-08-23T07:48:14;7.53;;;6.47;;
56122;SDS011;42426;46.104;19.656;2022-08-23T07:50:40;22.30;;;9.68;;
56122;SDS011;42426;46.104;19.656;2022-08-23T07:53:07;30.65;;;9.88;;
56122;SDS011;42426;46.104;19.656;2022-08-23T07:55:33;6.22;;;4.95;;
56122;SDS011;42426;46.104;19.656;2022-08-23T07:57:59;18.95;;;10.98;;
56122;SDS011;42426;46.104;19.656;2022-08-23T08:00:26;16.85;;;11.95;;
56122;SDS011;42426;46.104;19.656;2022-08-23T08:02:52;13.80;;;10.00;;
56122;SDS011;42426;46.104;19.656;2022-08-23T08:05:18;20.63;;;11.57;;
56122;SDS011;42426;46.104;19.656;2022-08-23T08:07:43;17.38;;;11.43;;
56122;SDS011;42426;46.104;19.656;2022-08-23T08:10:09;8.88;;;5.55;;
56122;SDS011;42426;46.104;19.656;2022-08-23T08:12:36;15.43;;;11.30;;
56122;SDS011;42426;46.104;19.656;2022-08-23T08:15:02;20.00;;;11.15;;
56122;SDS011;42426;46.104;19.656;2022-08-23T08:17:28;15.98;;;12.25;;
56122;SDS011;42426;46.104;19.656;2022-08-23T08:19:54;16.70;;;10.07;;
56122;SDS011;42426;46.104;19.656;2022-08-23T08:22:20;15.73;;;11.50;;
56122;SDS011;42426;46.104;19.656;2022-08-23T08:24:46;14.73;;;11.32;;
56122;SDS011;42426;46.104;19.656;2022-08-23T08:27:12;16.33;;;12.07;;
56122;SDS011;42426;46.104;19.656;2022-08-23T08:29:38;9.80;;;6.95;;
56122;SDS011;42426;46.104;19.656;2022-08-23T08:32:04;17.17;;;10.45;;
56122;SDS011;42426;46.104;19.656;2022-08-23T08:34:31;15.77;;;11.43;;
56122;SDS011;42426;46.104;19.656;2022-08-23T08:36:57;14.20;;;11.50;;
56122;SDS011;42426;46.104;19.656;2022-08-23T08:39:24;14.75;;;10.82;;
56122;SDS011;42426;46.104;19.656;2022-08-23T08:44:41;13.25;;;10.00;;
56122;SDS011;42426;46.104;19.656;2022-08-23T08:47:27;15.02;;;10.30;;
56122;SDS011;42426;46.104;19.656;2022-08-23T08:52:59;13.38;;;9.43;;
56122;SDS011;42426;46.104;19.656;2022-08-23T08:55:31;18.05;;;10.18;;
56122;SDS011;42426;46.104;19.656;2022-08-23T08:58:00;19.77;;;9.55;;
56122;SDS011;42426;46.104;19.656;2022-08-23T09:00:31;34.83;;;11.90;;
56122;SDS011;42426;46.104;19.656;2022-08-23T09:03:03;26.23;;;11.15;;
56122;SDS011;42426;46.104;19.656;2022-08-23T09:05:36;22.50;;;10.20;;
56122;SDS011;42426;46.104;19.656;2022-08-23T09:18:52;11.13;;;9.57;;
56122;SDS011;42426;46.104;19.656;2022-08-23T09:21:18;13.45;;;10.00;;
56122;SDS011;42426;46.104;19.656;2022-08-23T09:23:46;12.77;;;10.55;;
56122;SDS011;42426;46.104;19.656;2022-08-23T09:26:21;13.02;;;10.52;;
56122;SDS011;42426;46.104;19.656;2022-08-23T09:28:58;13.55;;;9.93;;
56122;SDS011;42426;46.104;19.656;2022-08-23T09:31:40;9.90;;;7.00;;
56122;SDS011;42426;46.104;19.656;2022-08-23T09:34:08;10.60;;;8.80;;
56122;SDS011;42426;46.104;19.656;2022-08-23T09:36:39;8.90;;;8.00;;
56122;SDS011;42426;46.104;19.656;2022-08-23T09:39:22;10.05;;;9.00;;
56122;SDS011;42426;46.104;19.656;2022-08-23T09:41:48;11.83;;;8.70;;
56122;SDS011;42426;46.104;19.656;2022-08-23T09:44:15;9.75;;;8.35;;
56122;SDS011;42426;46.104;19.656;2022-08-23T09:47:05;11.73;;;8.52;;
56122;SDS011;42426;46.104;19.656;2022-08-23T09:49:42;9.43;;;8.15;;
56122;SDS011;42426;46.104;19.656;2022-08-23T09:52:25;8.73;;;7.15;;
56122;SDS011;42426;46.104;19.656;2022-08-23T09:55:06;10.07;;;8.18;;
56122;SDS011;42426;46.104;19.656;2022-08-23T09:57:35;9.18;;;8.13;;
56122;SDS011;42426;46.104;19.656;2022-08-23T10:02:40;11.32;;;9.05;;
56122;SDS011;42426;46.104;19.656;2022-08-23T10:05:16;10.43;;;8.77;;
56122;SDS011;42426;46.104;19.656;2022-08-23T10:08:00;14.10;;;9.00;;
56122;SDS011;42426;46.104;19.656;2022-08-23T10:13:15;8.82;;;7.93;;
56122;SDS011;42426;46.104;19.656;2022-08-23T10:20:44;9.07;;;7.28;;
56122;SDS011;42426;46.104;19.656;2022-08-23T10:34:20;7.28;;;6.57;;
56122;SDS011;42426;46.104;19.656;2022-08-23T10:39:51;8.23;;;6.93;;
56122;SDS011;42426;46.104;19.656;2022-08-23T10:42:39;9.40;;;7.30;;
56122;SDS011;42426;46.104;19.656;2022-08-23T10:48:06;12.35;;;8.32;;
56122;SDS011;42426;46.104;19.656;2022-08-23T10:50:42;8.95;;;6.95;;
56122;SDS011;42426;46.104;19.656;2022-08-23T10:53:16;8.18;;;7.03;;
56122;SDS011;42426;46.104;19.656;2022-08-23T10:55:54;7.20;;;6.50;;
56122;SDS011;42426;46.104;19.656;2022-08-23T10:58:34;8.63;;;6.47;;
56122;SDS011;42426;46.104;19.656;2022-08-23T11:01:05;7.57;;;6.20;;
56122;SDS011;42426;46.104;19.656;2022-08-23T11:14:11;6.30;;;5.70;;
56122;SDS011;42426;46.104;19.656;2022-08-23T11:16:53;7.40;;;6.68;;
56122;SDS011;42426;46.104;19.656;2022-08-23T11:22:25;6.55;;;5.78;;
56122;SDS011;42426;46.104;19.656;2022-08-23T11:24:55;6.13;;;5.60;;
56122;SDS011;42426;46.104;19.656;2022-08-23T11:27:36;11.15;;;6.55;;
56122;SDS011;42426;46.104;19.656;2022-08-23T11:32:56;4.82;;;4.32;;
56122;SDS011;42426;46.104;19.656;2022-08-23T11:35:37;7.70;;;6.75;;
56122;SDS011;42426;46.104;19.656;2022-08-23T11:38:08;7.22;;;5.97;;
56122;SDS011;42426;46.104;19.656;2022-08-23T11:43:27;6.05;;;5.53;;
56122;SDS011;42426;46.104;19.656;2022-08-23T11:48:54;6.43;;;5.68;;
56122;SDS011;42426;46.104;19.656;2022-08-23T12:23:51;7.43;;;6.65;;
56122;SDS011;42426;46.104;19.656;2022-08-23T12:34:39;8.45;;;5.93;;
56122;SDS011;42426;46.104;19.656;2022-08-23T12:37:13;5.88;;;5.32;;
56122;SDS011;42426;46.104;19.656;2022-08-23T12:40:00;7.57;;;6.47;;
56122;SDS011;42426;46.104;19.656;2022-08-23T12:42:36;7.18;;;6.47;;
56122;SDS011;42426;46.104;19.656;2022-08-23T12:47:36;5.85;;;5.25;;
56122;SDS011;42426;46.104;19.656;2022-08-23T12:50:08;5.70;;;5.20;;
56122;SDS011;42426;46.104;19.656;2022-08-23T12:52:53;6.63;;;5.55;;
56122;SDS011;42426;46.104;19.656;2022-08-23T12:55:27;6.10;;;5.47;;
56122;SDS011;42426;46.104;19.656;2022-08-23T12:57:58;7.35;;;5.47;;
56122;SDS011;42426;46.104;19.656;2022-08-23T13:00:42;6.80;;;6.22;;
56122;SDS011;42426;46.104;19.656;2022-08-23T13:03:18;6.20;;;5.60;;
56122;SDS011;42426;46.104;19.656;2022-08-23T13:06:14;6.57;;;5.95;;
56122;SDS011;42426;46.104;19.656;2022-08-23T13:08:46;7.30;;;6.50;;
56122;SDS011;42426;46.104;19.656;2022-08-23T13:11:19;23.57;;;16.10;;
56122;SDS011;42426;46.104;19.656;2022-08-23T13:13:47;15.35;;;12.10;;
56122;SDS011;42426;46.104;19.656;2022-08-23T13:16:24;9.93;;;8.85;;
56122;SDS011;42426;46.104;19.656;2022-08-23T13:18:50;9.65;;;7.45;;
56122;SDS011;42426;46.104;19.656;2022-08-23T13:23:44;8.20;;;7.40;;
56122;SDS011;42426;46.104;19.656;2022-08-23T13:26:23;9.73;;;8.02;;
56122;SDS011;42426;46.104;19.656;2022-08-23T13:31:58;11.95;;;8.02;;
56122;SDS011;42426;46.104;19.656;2022-08-23T13:34:30;7.65;;;6.85;;
56122;SDS011;42426;46.104;19.656;2022-08-23T13:36:57;8.45;;;7.60;;
56122;SDS011;42426;46.104;19.656;2022-08-23T13:39:24;8.68;;;7.35;;
56122;SDS011;42426;46.104;19.656;2022-08-23T13:41:50;7.65;;;6.88;;
56122;SDS011;42426;46.104;19.656;2022-08-23T13:44:17;8.65;;;7.75;;
56122;SDS011;42426;46.104;19.656;2022-08-23T13:46:44;9.27;;;8.38;;
56122;SDS011;42426;46.104;19.656;2022-08-23T13:49:12;8.60;;;7.78;;
56122;SDS011;42426;46.104;19.656;2022-08-23T13:54:28;8.90;;;8.10;;
56122;SDS011;42426;46.104;19.656;2022-08-23T13:56:57;10.90;;;8.55;;
56122;SDS011;42426;46.104;19.656;2022-08-23T13:59:26;12.70;;;8.75;;
56122;SDS011;42426;46.104;19.656;2022-08-23T14:01:56;9.02;;;8.13;;
56122;SDS011;42426;46.104;19.656;2022-08-23T14:04:28;9.13;;;8.18;;
56122;SDS011;42426;46.104;19.656;2022-08-23T14:06:54;9.20;;;7.88;;
56122;SDS011;42426;46.104;19.656;2022-08-23T14:09:19;8.52;;;7.68;;
56122;SDS011;42426;46.104;19.656;2022-08-23T14:11:45;8.40;;;7.53;;
56122;SDS011;42426;46.104;19.656;2022-08-23T14:16:44;8.00;;;6.68;;
56122;SDS011;42426;46.104;19.656;2022-08-23T14:19:10;10.75;;;7.20;;
56122;SDS011;42426;46.104;19.656;2022-08-23T14:21:36;7.13;;;6.30;;
56122;SDS011;42426;46.104;19.656;2022-08-23T14:24:02;9.05;;;7.28;;
56122;SDS011;42426;46.104;19.656;2022-08-23T14:26:28;9.52;;;7.05;;
56122;SDS011;42426;46.104;19.656;2022-08-23T14:28:54;8.18;;;6.53;;
56122;SDS011;42426;46.104;19.656;2022-08-23T14:31:20;7.55;;;6.82;;
56122;SDS011;42426;46.104;19.656;2022-08-23T14:33:46;10.27;;;7.43;;
56122;SDS011;42426;46.104;19.656;2022-08-23T14:36:12;6.88;;;6.15;;
56122;SDS011;42426;46.104;19.656;2022-08-23T14:38:39;7.53;;;6.72;;
56122;SDS011;42426;46.104;19.656;2022-08-23T14:41:06;6.80;;;5.90;;
56122;SDS011;42426;46.104;19.656;2022-08-23T14:43:34;6.38;;;5.78;;
56122;SDS011;42426;46.104;19.656;2022-08-23T14:46:00;8.25;;;6.80;;
56122;SDS011;42426;46.104;19.656;2022-08-23T14:48:27;7.60;;;6.80;;
56122;SDS011;42426;46.104;19.656;2022-08-23T14:50:53;9.00;;;7.50;;
56122;SDS011;42426;46.104;19.656;2022-08-23T14:53:21;6.97;;;5.85;;
56122;SDS011;42426;46.104;19.656;2022-08-23T14:55:49;9.32;;;7.30;;
56122;SDS011;42426;46.104;19.656;2022-08-23T14:58:17;10.40;;;7.50;;
56122;SDS011;42426;46.104;19.656;2022-08-23T15:00:48;7.38;;;6.30;;
56122;SDS011;42426;46.104;19.656;2022-08-23T15:03:16;10.32;;;7.80;;
56122;SDS011;42426;46.104;19.656;2022-08-23T15:05:51;12.05;;;7.05;;
56122;SDS011;42426;46.104;19.656;2022-08-23T15:08:18;8.27;;;7.03;;
56122;SDS011;42426;46.104;19.656;2022-08-23T15:10:44;9.40;;;7.35;;
56122;SDS011;42426;46.104;19.656;2022-08-23T15:13:10;9.02;;;7.35;;
56122;SDS011;42426;46.104;19.656;2022-08-23T15:15:36;11.52;;;9.82;;
56122;SDS011;42426;46.104;19.656;2022-08-23T15:18:03;17.55;;;12.05;;
56122;SDS011;42426;46.104;19.656;2022-08-23T15:20:34;15.70;;;11.13;;
56122;SDS011;42426;46.104;19.656;2022-08-23T15:23:06;11.15;;;9.13;;
56122;SDS011;42426;46.104;19.656;2022-08-23T15:25:33;8.68;;;7.78;;
56122;SDS011;42426;46.104;19.656;2022-08-23T15:28:01;9.85;;;8.10;;
56122;SDS011;42426;46.104;19.656;2022-08-23T15:30:28;9.43;;;7.57;;
56122;SDS011;42426;46.104;19.656;2022-08-23T15:32:54;7.93;;;7.10;;
56122;SDS011;42426;46.104;19.656;2022-08-23T15:35:20;11.85;;;8.18;;
56122;SDS011;42426;46.104;19.656;2022-08-23T15:37:46;8.05;;;7.03;;
56122;SDS011;42426;46.104;19.656;2022-08-23T15:40:11;8.82;;;6.65;;
56122;SDS011;42426;46.104;19.656;2022-08-23T15:42:38;7.90;;;7.05;;
56122;SDS011;42426;46.104;19.656;2022-08-23T15:45:04;8.63;;;7.63;;
56122;SDS011;42426;46.104;19.656;2022-08-23T15:47:32;8.95;;;7.45;;
56122;SDS011;42426;46.104;19.656;2022-08-23T15:50:01;8.68;;;7.25;;
56122;SDS011;42426;46.104;19.656;2022-08-23T15:52:28;7.63;;;6.32;;
56122;SDS011;42426;46.104;19.656;2022-08-23T15:54:54;11.32;;;7.05;;
56122;SDS011;42426;46.104;19.656;2022-08-23T15:57:21;7.65;;;6.80;;
56122;SDS011;42426;46.104;19.656;2022-08-23T15:59:49;10.13;;;6.95;;
56122;SDS011;42426;46.104;19.656;2022-08-23T16:02:16;8.07;;;7.25;;
56122;SDS011;42426;46.104;19.656;2022-08-23T16:04:41;8.30;;;6.85;;
56122;SDS011;42426;46.104;19.656;2022-08-23T16:07:08;8.85;;;6.78;;
56122;SDS011;42426;46.104;19.656;2022-08-23T16:09:37;8.70;;;6.57;;
56122;SDS011;42426;46.104;19.656;2022-08-23T16:12:03;12.65;;;7.75;;
56122;SDS011;42426;46.104;19.656;2022-08-23T16:14:29;7.95;;;6.95;;
56122;SDS011;42426;46.104;19.656;2022-08-23T16:16:56;8.10;;;7.00;;
56122;SDS011;42426;46.104;19.656;2022-08-23T16:19:23;10.70;;;7.30;;
56122;SDS011;42426;46.104;19.656;2022-08-23T16:21:49;10.80;;;6.97;;
56122;SDS011;42426;46.104;19.656;2022-08-23T16:24:18;8.23;;;7.10;;
56122;SDS011;42426;46.104;19.656;2022-08-23T16:26:44;8.68;;;6.90;;
56122;SDS011;42426;46.104;19.656;2022-08-23T16:29:11;9.18;;;8.23;;
56122;SDS011;42426;46.104;19.656;2022-08-23T16:31:41;8.77;;;7.85;;
56122;SDS011;42426;46.104;19.656;2022-08-23T16:34:08;10.55;;;6.82;;
56122;SDS011;42426;46.104;19.656;2022-08-23T16:36:37;8.30;;;7.45;;
56122;SDS011;42426;46.104;19.656;2022-08-23T16:39:06;7.97;;;7.18;;
56122;SDS011;42426;46.104;19.656;2022-08-23T16:41:32;9.43;;;8.15;;
56122;SDS011;42426;46.104;19.656;2022-08-23T16:43:58;11.68;;;8.55;;